sensor_id;sensor_type;location;lat;lon;timestamp;pressure;altitude;pressure_sealevel;temperature
42673;BMP280;28284;46.514;30.724;2023-06-19T00:01:41;100479.06;;;25.94
42673;BMP280;28284;46.514;30.724;2023-06-19T00:04:06;100482.38;;;25.92
42673;BMP280;28284;46.514;30.724;2023-06-19T00:06:32;100482.63;;;25.94
42673;BMP280;28284;46.514;30.724;2023-06-19T00:08:57;100483.97;;;25.99
42673;BMP280;28284;46.514;30.724;2023-06-19T00:11:22;100487.50;;;25.99
42673;BMP280;28284;46.514;30.724;2023-06-19T00:13:47;100487.28;;;26.03
42673;BMP280;28284;46.514;30.724;2023-06-19T00:16:13;100481.00;;;26.08
42673;BMP280;28284;46.514;30.724;2023-06-19T00:18:38;100484.81;;;26.10
42673;BMP280;28284;46.514;30.724;2023-06-19T00:21:05;100502.50;;;26.13
42673;BMP280;28284;46.514;30.724;2023-06-19T00:23:31;100484.88;;;26.16
42673;BMP280;28284;46.514;30.724;2023-06-19T00:25:56;100489.66;;;26.15
42673;BMP280;28284;46.514;30.724;2023-06-19T00:28:21;100491.94;;;26.17
42673;BMP280;28284;46.514;30.724;2023-06-19T00:30:47;100491.16;;;26.16
42673;BMP280;28284;46.514;30.724;2023-06-19T00:33:12;100497.25;;;26.15
42673;BMP280;28284;46.514;30.724;2023-06-19T00:35:37;100494.47;;;26.15
42673;BMP280;28284;46.514;30.724;2023-06-19T00:38:04;100491.69;;;26.15
42673;BMP280;28284;46.514;30.724;2023-06-19T00:40:30;100492.94;;;26.14
42673;BMP280;28284;46.514;30.724;2023-06-19T00:42:56;100502.50;;;26.13
42673;BMP280;28284;46.514;30.724;2023-06-19T00:45:21;100492.16;;;26.13
42673;BMP280;28284;46.514;30.724;2023-06-19T00:47:48;100501.00;;;26.12
42673;BMP280;28284;46.514;30.724;2023-06-19T00:50:16;100506.56;;;26.12
42673;BMP280;28284;46.514;30.724;2023-06-19T00:52:42;100500.72;;;26.10
42673;BMP280;28284;46.514;30.724;2023-06-19T00:55:08;100501.22;;;26.08
42673;BMP280;28284;46.514;30.724;2023-06-19T00:57:34;100500.66;;;26.04
42673;BMP280;28284;46.514;30.724;2023-06-19T01:00:00;100496.88;;;26.02
42673;BMP280;28284;46.514;30.724;2023-06-19T01:02:26;100497.06;;;25.98
42673;BMP280;28284;46.514;30.724;2023-06-19T01:04:52;100498.03;;;25.95
42673;BMP280;28284;46.514;30.724;2023-06-19T01:07:19;100503.53;;;25.90
42673;BMP280;28284;46.514;30.724;2023-06-19T01:09:49;100491.31;;;25.82
42673;BMP280;28284;46.514;30.724;2023-06-19T01:12:16;100502.69;;;25.84
42673;BMP280;28284;46.514;30.724;2023-06-19T01:14:59;100498.41;;;25.83
42673;BMP280;28284;46.514;30.724;2023-06-19T01:17:28;100498.88;;;25.81
42673;BMP280;28284;46.514;30.724;2023-06-19T01:19:55;100502.16;;;25.80
42673;BMP280;28284;46.514;30.724;2023-06-19T01:22:30;100501.88;;;25.78
42673;BMP280;28284;46.514;30.724;2023-06-19T01:24:55;100503.41;;;25.79
42673;BMP280;28284;46.514;30.724;2023-06-19T01:27:21;100504.63;;;25.78
42673;BMP280;28284;46.514;30.724;2023-06-19T01:29:46;100503.84;;;25.77
42673;BMP280;28284;46.514;30.724;2023-06-19T01:32:16;100505.63;;;25.75
42673;BMP280;28284;46.514;30.724;2023-06-19T01:34:44;100506.88;;;25.74
42673;BMP280;28284;46.514;30.724;2023-06-19T01:37:10;100510.91;;;25.73
42673;BMP280;28284;46.514;30.724;2023-06-19T01:39:36;100513.13;;;25.69
42673;BMP280;28284;46.514;30.724;2023-06-19T01:42:02;100511.31;;;25.66
42673;BMP280;28284;46.514;30.724;2023-06-19T01:44:28;100510.75;;;25.62
42673;BMP280;28284;46.514;30.724;2023-06-19T01:46:53;100508.94;;;25.59
42673;BMP280;28284;46.514;30.724;2023-06-19T01:49:18;100506.56;;;25.52
42673;BMP280;28284;46.514;30.724;2023-06-19T01:51:44;100508.06;;;25.48
42673;BMP280;28284;46.514;30.724;2023-06-19T01:54:09;100507.69;;;25.40
42673;BMP280;28284;46.514;30.724;2023-06-19T01:56:35;100507.59;;;25.35
42673;BMP280;28284;46.514;30.724;2023-06-19T01:59:00;100501.19;;;25.29
42673;BMP280;28284;46.514;30.724;2023-06-19T02:01:26;100496.16;;;25.27
42673;BMP280;28284;46.514;30.724;2023-06-19T02:03:51;100498.66;;;25.25
42673;BMP280;28284;46.514;30.724;2023-06-19T02:06:17;100496.09;;;25.22
42673;BMP280;28284;46.514;30.724;2023-06-19T02:08:42;100496.53;;;25.20
42673;BMP280;28284;46.514;30.724;2023-06-19T02:11:07;100501.53;;;25.16
42673;BMP280;28284;46.514;30.724;2023-06-19T02:13:33;100502.50;;;25.13
42673;BMP280;28284;46.514;30.724;2023-06-19T02:15:58;100506.22;;;25.11
42673;BMP280;28284;46.514;30.724;2023-06-19T02:18:23;100501.66;;;25.08
42673;BMP280;28284;46.514;30.724;2023-06-19T02:20:49;100502.13;;;25.06
42673;BMP280;28284;46.514;30.724;2023-06-19T02:23:14;100492.78;;;25.04
42673;BMP280;28284;46.514;30.724;2023-06-19T02:25:39;100497.75;;;25.00
42673;BMP280;28284;46.514;30.724;2023-06-19T02:28:05;100504.75;;;24.95
42673;BMP280;28284;46.514;30.724;2023-06-19T02:30:30;100503.13;;;24.89
42673;BMP280;28284;46.514;30.724;2023-06-19T02:32:55;100514.88;;;24.84
42673;BMP280;28284;46.514;30.724;2023-06-19T02:35:20;100517.06;;;24.80
42673;BMP280;28284;46.514;30.724;2023-06-19T02:37:46;100521.75;;;24.74
42673;BMP280;28284;46.514;30.724;2023-06-19T02:40:12;100525.03;;;24.72
42673;BMP280;28284;46.514;30.724;2023-06-19T02:42:37;100519.50;;;24.72
42673;BMP280;28284;46.514;30.724;2023-06-19T02:45:03;100526.91;;;24.66
42673;BMP280;28284;46.514;30.724;2023-06-19T02:47:34;100533.91;;;24.62
42673;BMP280;28284;46.514;30.724;2023-06-19T02:50:00;100525.78;;;24.59
42673;BMP280;28284;46.514;30.724;2023-06-19T02:52:26;100532.28;;;24.56
42673;BMP280;28284;46.514;30.724;2023-06-19T02:54:51;100525.38;;;24.51
42673;BMP280;28284;46.514;30.724;2023-06-19T02:57:17;100527.13;;;24.49
42673;BMP280;28284;46.514;30.724;2023-06-19T02:59:42;100527.56;;;24.47
42673;BMP280;28284;46.514;30.724;2023-06-19T03:02:07;100524.81;;;24.47
42673;BMP280;28284;46.514;30.724;2023-06-19T03:04:33;100520.03;;;24.48
42673;BMP280;28284;46.514;30.724;2023-06-19T03:06:58;100523.56;;;24.48
42673;BMP280;28284;46.514;30.724;2023-06-19T03:09:23;100519.84;;;24.51
42673;BMP280;28284;46.514;30.724;2023-06-19T03:11:49;100515.84;;;24.52
42673;BMP280;28284;46.514;30.724;2023-06-19T03:14:14;100513.81;;;24.53
42673;BMP280;28284;46.514;30.724;2023-06-19T03:16:39;100512.31;;;24.52
42673;BMP280;28284;46.514;30.724;2023-06-19T03:19:04;100510.31;;;24.52
42673;BMP280;28284;46.514;30.724;2023-06-19T03:21:30;100509.38;;;24.55
42673;BMP280;28284;46.514;30.724;2023-06-19T03:23:55;100515.34;;;24.54
42673;BMP280;28284;46.514;30.724;2023-06-19T03:26:20;100517.34;;;24.53
42673;BMP280;28284;46.514;30.724;2023-06-19T03:28:46;100526.91;;;24.52
42673;BMP280;28284;46.514;30.724;2023-06-19T03:31:12;100511.53;;;24.51
42673;BMP280;28284;46.514;30.724;2023-06-19T03:33:37;100525.38;;;24.51
42673;BMP280;28284;46.514;30.724;2023-06-19T03:36:03;100522.59;;;24.51
42673;BMP280;28284;46.514;30.724;2023-06-19T03:38:28;100518.31;;;24.50
42673;BMP280;28284;46.514;30.724;2023-06-19T03:40:53;100524.34;;;24.49
42673;BMP280;28284;46.514;30.724;2023-06-19T03:43:19;100515.25;;;24.48
42673;BMP280;28284;46.514;30.724;2023-06-19T03:45:44;100518.22;;;24.45
42673;BMP280;28284;46.514;30.724;2023-06-19T03:48:09;100510.88;;;24.42
42673;BMP280;28284;46.514;30.724;2023-06-19T03:50:35;100517.38;;;24.39
42673;BMP280;28284;46.514;30.724;2023-06-19T03:53:00;100510.31;;;24.38
42673;BMP280;28284;46.514;30.724;2023-06-19T03:55:25;100512.56;;;24.39
42673;BMP280;28284;46.514;30.724;2023-06-19T03:57:51;100508.28;;;24.38
42673;BMP280;28284;46.514;30.724;2023-06-19T04:00:17;100511.34;;;24.40
42673;BMP280;28284;46.514;30.724;2023-06-19T04:02:43;100505.63;;;24.44
42673;BMP280;28284;46.514;30.724;2023-06-19T04:05:11;100510.50;;;24.49
42673;BMP280;28284;46.514;30.724;2023-06-19T04:07:36;100508.00;;;24.51
42673;BMP280;28284;46.514;30.724;2023-06-19T04:10:01;100508.28;;;24.53
42673;BMP280;28284;46.514;30.724;2023-06-19T04:12:27;100517.00;;;24.60
42673;BMP280;28284;46.514;30.724;2023-06-19T04:14:52;100514.13;;;24.69
42673;BMP280;28284;46.514;30.724;2023-06-19T04:17:17;100515.06;;;24.80
42673;BMP280;28284;46.514;30.724;2023-06-19T04:19:43;100511.25;;;24.92
42673;BMP280;28284;46.514;30.724;2023-06-19T04:22:08;100520.78;;;25.06
42673;BMP280;28284;46.514;30.724;2023-06-19T04:24:34;100518.28;;;25.22
42673;BMP280;28284;46.514;30.724;2023-06-19T04:26:59;100515.75;;;25.38
42673;BMP280;28284;46.514;30.724;2023-06-19T04:29:25;100517.75;;;25.58
42673;BMP280;28284;46.514;30.724;2023-06-19T04:31:50;100518.72;;;25.74
42673;BMP280;28284;46.514;30.724;2023-06-19T04:34:16;100526.25;;;25.94
42673;BMP280;28284;46.514;30.724;2023-06-19T04:36:41;100528.97;;;26.08
42673;BMP280;28284;46.514;30.724;2023-06-19T04:39:07;100529.84;;;26.19
42673;BMP280;28284;46.514;30.724;2023-06-19T04:41:32;100531.72;;;26.28
42673;BMP280;28284;46.514;30.724;2023-06-19T04:43:57;100538.34;;;26.36
42673;BMP280;28284;46.514;30.724;2023-06-19T04:46:23;100528.56;;;26.40
42673;BMP280;28284;46.514;30.724;2023-06-19T04:48:48;100546.31;;;26.48
42673;BMP280;28284;46.514;30.724;2023-06-19T04:51:17;100544.34;;;26.54
42673;BMP280;28284;46.514;30.724;2023-06-19T04:53:46;100542.59;;;26.57
42673;BMP280;28284;46.514;30.724;2023-06-19T04:56:11;100560.06;;;26.63
42673;BMP280;28284;46.514;30.724;2023-06-19T04:58:36;100564.16;;;26.67
42673;BMP280;28284;46.514;30.724;2023-06-19T05:01:09;100565.25;;;26.75
42673;BMP280;28284;46.514;30.724;2023-06-19T05:03:35;100566.28;;;26.77
42673;BMP280;28284;46.514;30.724;2023-06-19T05:06:00;100571.84;;;26.77
42673;BMP280;28284;46.514;30.724;2023-06-19T05:08:25;100564.50;;;26.74
42673;BMP280;28284;46.514;30.724;2023-06-19T05:10:51;100575.38;;;26.78
42673;BMP280;28284;46.514;30.724;2023-06-19T05:13:16;100575.91;;;26.82
42673;BMP280;28284;46.514;30.724;2023-06-19T05:15:43;100589.63;;;26.91
42673;BMP280;28284;46.514;30.724;2023-06-19T05:18:08;100590.72;;;26.99
42673;BMP280;28284;46.514;30.724;2023-06-19T05:20:33;100595.09;;;27.05
42673;BMP280;28284;46.514;30.724;2023-06-19T05:22:59;100598.44;;;27.15
42673;BMP280;28284;46.514;30.724;2023-06-19T05:25:24;100604.28;;;27.17
42673;BMP280;28284;46.514;30.724;2023-06-19T05:27:49;100604.97;;;27.12
42673;BMP280;28284;46.514;30.724;2023-06-19T05:30:17;100607.75;;;27.12
42673;BMP280;28284;46.514;30.724;2023-06-19T05:32:43;100602.19;;;27.12
42673;BMP280;28284;46.514;30.724;2023-06-19T05:35:08;100615.59;;;27.08
42673;BMP280;28284;46.514;30.724;2023-06-19T05:37:33;100609.25;;;27.07
42673;BMP280;28284;46.514;30.724;2023-06-19T05:39:59;100615.28;;;27.06
42673;BMP280;28284;46.514;30.724;2023-06-19T05:42:24;100608.25;;;27.10
42673;BMP280;28284;46.514;30.724;2023-06-19T05:44:49;100610.63;;;27.23
42673;BMP280;28284;46.514;30.724;2023-06-19T05:47:15;100607.25;;;27.44
42673;BMP280;28284;46.514;30.724;2023-06-19T05:49:42;100600.06;;;27.73
42673;BMP280;28284;46.514;30.724;2023-06-19T05:52:07;100601.97;;;28.04
42673;BMP280;28284;46.514;30.724;2023-06-19T05:54:33;100595.97;;;28.32
42673;BMP280;28284;46.514;30.724;2023-06-19T05:56:58;100597.28;;;28.59
42673;BMP280;28284;46.514;30.724;2023-06-19T05:59:23;100603.63;;;28.81
42673;BMP280;28284;46.514;30.724;2023-06-19T06:01:49;100595.75;;;29.01
42673;BMP280;28284;46.514;30.724;2023-06-19T06:04:15;100593.72;;;29.18
42673;BMP280;28284;46.514;30.724;2023-06-19T06:06:41;100595.72;;;29.28
42673;BMP280;28284;46.514;30.724;2023-06-19T06:09:06;100598.97;;;29.38
42673;BMP280;28284;46.514;30.724;2023-06-19T06:11:34;100593.63;;;29.40
42673;BMP280;28284;46.514;30.724;2023-06-19T06:13:59;100596.72;;;29.36
42673;BMP280;28284;46.514;30.724;2023-06-19T06:16:25;100599.75;;;29.33
42673;BMP280;28284;46.514;30.724;2023-06-19T06:18:50;100606.13;;;29.33
42673;BMP280;28284;46.514;30.724;2023-06-19T06:21:15;100608.91;;;29.33
42673;BMP280;28284;46.514;30.724;2023-06-19T06:23:41;100612.19;;;29.43
42673;BMP280;28284;46.514;30.724;2023-06-19T06:26:06;100625.81;;;29.57
42673;BMP280;28284;46.514;30.724;2023-06-19T06:28:31;100626.56;;;29.68
42673;BMP280;28284;46.514;30.724;2023-06-19T06:30:57;100621.44;;;29.83
42673;BMP280;28284;46.514;30.724;2023-06-19T06:33:22;100630.44;;;30.11
42673;BMP280;28284;46.514;30.724;2023-06-19T06:35:48;100632.53;;;30.40
42673;BMP280;28284;46.514;30.724;2023-06-19T06:38:13;100630.03;;;30.71
42673;BMP280;28284;46.514;30.724;2023-06-19T06:40:38;100630.38;;;30.91
42673;BMP280;28284;46.514;30.724;2023-06-19T06:43:04;100636.06;;;31.10
42673;BMP280;28284;46.514;30.724;2023-06-19T06:45:29;100632.19;;;31.12
42673;BMP280;28284;46.514;30.724;2023-06-19T06:47:54;100630.34;;;31.20
42673;BMP280;28284;46.514;30.724;2023-06-19T06:50:19;100629.00;;;31.27
42673;BMP280;28284;46.514;30.724;2023-06-19T06:52:45;100627.13;;;31.35
42673;BMP280;28284;46.514;30.724;2023-06-19T06:55:10;100625.22;;;31.43
42673;BMP280;28284;46.514;30.724;2023-06-19T06:57:35;100623.75;;;31.42
42673;BMP280;28284;46.514;30.724;2023-06-19T07:00:01;100621.63;;;31.48
42673;BMP280;28284;46.514;30.724;2023-06-19T07:02:28;100614.22;;;31.50
42673;BMP280;28284;46.514;30.724;2023-06-19T07:04:54;100619.28;;;31.52
42673;BMP280;28284;46.514;30.724;2023-06-19T07:07:19;100619.59;;;31.48
42673;BMP280;28284;46.514;30.724;2023-06-19T07:09:45;100618.72;;;31.35
42673;BMP280;28284;46.514;30.724;2023-06-19T07:12:11;100625.00;;;31.17
42673;BMP280;28284;46.514;30.724;2023-06-19T07:14:36;100630.75;;;31.01
42673;BMP280;28284;46.514;30.724;2023-06-19T07:17:01;100629.25;;;30.76
42673;BMP280;28284;46.514;30.724;2023-06-19T07:19:27;100627.56;;;30.62
42673;BMP280;28284;46.514;30.724;2023-06-19T07:21:52;100623.09;;;30.48
42673;BMP280;28284;46.514;30.724;2023-06-19T07:24:17;100628.75;;;30.37
42673;BMP280;28284;46.514;30.724;2023-06-19T07:26:43;100631.59;;;30.32
42673;BMP280;28284;46.514;30.724;2023-06-19T07:29:10;100635.41;;;30.29
42673;BMP280;28284;46.514;30.724;2023-06-19T07:31:35;100633.34;;;30.35
42673;BMP280;28284;46.514;30.724;2023-06-19T07:34:01;100636.13;;;30.40
42673;BMP280;28284;46.514;30.724;2023-06-19T07:36:26;100638.59;;;30.49
42673;BMP280;28284;46.514;30.724;2023-06-19T07:38:51;100642.81;;;30.61
42673;BMP280;28284;46.514;30.724;2023-06-19T07:41:17;100641.69;;;30.75
42673;BMP280;28284;46.514;30.724;2023-06-19T07:43:42;100645.06;;;30.97
42673;BMP280;28284;46.514;30.724;2023-06-19T07:46:08;100634.59;;;31.27
42673;BMP280;28284;46.514;30.724;2023-06-19T07:48:34;100630.69;;;31.54
42673;BMP280;28284;46.514;30.724;2023-06-19T07:50:59;100638.19;;;32.06
42673;BMP280;28284;46.514;30.724;2023-06-19T07:53:24;100635.94;;;32.54
42673;BMP280;28284;46.514;30.724;2023-06-19T07:55:50;100643.00;;;32.86
42673;BMP280;28284;46.514;30.724;2023-06-19T07:58:15;100646.19;;;33.08
42673;BMP280;28284;46.514;30.724;2023-06-19T08:00:40;100642.97;;;33.30
42673;BMP280;28284;46.514;30.724;2023-06-19T08:03:05;100644.22;;;33.55
42673;BMP280;28284;46.514;30.724;2023-06-19T08:05:31;100642.56;;;33.85
42673;BMP280;28284;46.514;30.724;2023-06-19T08:07:56;100644.22;;;34.14
42673;BMP280;28284;46.514;30.724;2023-06-19T08:10:23;100644.03;;;34.32
42673;BMP280;28284;46.514;30.724;2023-06-19T08:12:48;100654.19;;;34.35
42673;BMP280;28284;46.514;30.724;2023-06-19T08:15:13;100657.41;;;34.19
42673;BMP280;28284;46.514;30.724;2023-06-19T08:17:39;100647.50;;;34.25
42673;BMP280;28284;46.514;30.724;2023-06-19T08:20:05;100656.22;;;34.34
42673;BMP280;28284;46.514;30.724;2023-06-19T08:22:32;100655.06;;;34.30
42673;BMP280;28284;46.514;30.724;2023-06-19T08:24:57;100661.84;;;34.34
42673;BMP280;28284;46.514;30.724;2023-06-19T08:27:22;100665.16;;;34.46
42673;BMP280;28284;46.514;30.724;2023-06-19T08:29:47;100661.72;;;34.60
42673;BMP280;28284;46.514;30.724;2023-06-19T08:32:13;100665.00;;;34.92
42673;BMP280;28284;46.514;30.724;2023-06-19T08:34:38;100660.81;;;35.13
42673;BMP280;28284;46.514;30.724;2023-06-19T08:37:04;100664.19;;;35.47
42673;BMP280;28284;46.514;30.724;2023-06-19T08:39:30;100665.47;;;35.88
42673;BMP280;28284;46.514;30.724;2023-06-19T08:41:55;100665.91;;;35.92
42673;BMP280;28284;46.514;30.724;2023-06-19T08:44:21;100663.22;;;35.79
42673;BMP280;28284;46.514;30.724;2023-06-19T08:46:46;100668.47;;;35.75
42673;BMP280;28284;46.514;30.724;2023-06-19T08:49:11;100659.78;;;35.73
42673;BMP280;28284;46.514;30.724;2023-06-19T08:51:37;100658.47;;;35.74
42673;BMP280;28284;46.514;30.724;2023-06-19T08:54:04;100667.47;;;35.65
42673;BMP280;28284;46.514;30.724;2023-06-19T08:56:30;100665.22;;;35.64
42673;BMP280;28284;46.514;30.724;2023-06-19T08:59:09;100662.72;;;35.53
42673;BMP280;28284;46.514;30.724;2023-06-19T09:01:35;100658.47;;;35.32
42673;BMP280;28284;46.514;30.724;2023-06-19T09:04:07;100657.22;;;35.12
42673;BMP280;28284;46.514;30.724;2023-06-19T09:06:32;100653.72;;;34.92
42673;BMP280;28284;46.514;30.724;2023-06-19T09:08:58;100653.66;;;34.84
42673;BMP280;28284;46.514;30.724;2023-06-19T09:11:24;100657.78;;;34.83
42673;BMP280;28284;46.514;30.724;2023-06-19T09:13:55;100648.59;;;34.63
42673;BMP280;28284;46.514;30.724;2023-06-19T09:16:21;100655.41;;;34.47
42673;BMP280;28284;46.514;30.724;2023-06-19T09:18:48;100649.50;;;34.37
42673;BMP280;28284;46.514;30.724;2023-06-19T09:21:17;100647.50;;;34.25
42673;BMP280;28284;46.514;30.724;2023-06-19T09:23:47;100653.19;;;34.12
42673;BMP280;28284;46.514;30.724;2023-06-19T09:26:15;100648.53;;;34.15
42673;BMP280;28284;46.514;30.724;2023-06-19T09:28:41;100645.28;;;34.11
42673;BMP280;28284;46.514;30.724;2023-06-19T09:31:10;100646.75;;;34.04
42673;BMP280;28284;46.514;30.724;2023-06-19T09:33:36;100642.50;;;33.98
42673;BMP280;28284;46.514;30.724;2023-06-19T09:36:02;100633.69;;;33.94
42673;BMP280;28284;46.514;30.724;2023-06-19T09:38:32;100633.97;;;33.90
42673;BMP280;28284;46.514;30.724;2023-06-19T09:41:00;100628.16;;;33.88
42673;BMP280;28284;46.514;30.724;2023-06-19T09:43:28;100631.88;;;33.71
42673;BMP280;28284;46.514;30.724;2023-06-19T09:45:55;100620.13;;;33.59
42673;BMP280;28284;46.514;30.724;2023-06-19T09:48:22;100625.97;;;33.48
42673;BMP280;28284;46.514;30.724;2023-06-19T09:50:50;100618.09;;;33.34
42673;BMP280;28284;46.514;30.724;2023-06-19T09:53:20;100619.94;;;33.32
42673;BMP280;28284;46.514;30.724;2023-06-19T09:55:49;100607.31;;;33.25
42673;BMP280;28284;46.514;30.724;2023-06-19T09:58:16;100605.78;;;33.11
42673;BMP280;28284;46.514;30.724;2023-06-19T10:00:42;100611.41;;;32.98
42673;BMP280;28284;46.514;30.724;2023-06-19T10:03:11;100614.94;;;32.86
42673;BMP280;28284;46.514;30.724;2023-06-19T10:05:37;100597.88;;;32.84
42673;BMP280;28284;46.514;30.724;2023-06-19T10:08:02;100609.13;;;32.84
42673;BMP280;28284;46.514;30.724;2023-06-19T10:10:28;100590.53;;;32.81
42673;BMP280;28284;46.514;30.724;2023-06-19T10:13:00;100598.31;;;32.75
42673;BMP280;28284;46.514;30.724;2023-06-19T10:15:41;100594.31;;;32.71
42673;BMP280;28284;46.514;30.724;2023-06-19T10:18:16;100593.78;;;32.72
42673;BMP280;28284;46.514;30.724;2023-06-19T10:20:42;100594.84;;;32.69
42673;BMP280;28284;46.514;30.724;2023-06-19T10:25:39;100582.84;;;32.69
42673;BMP280;28284;46.514;30.724;2023-06-19T10:28:15;100582.66;;;32.67
42673;BMP280;28284;46.514;30.724;2023-06-19T10:30:41;100582.84;;;32.69
42673;BMP280;28284;46.514;30.724;2023-06-19T10:33:06;100582.84;;;32.69
42673;BMP280;28284;46.514;30.724;2023-06-19T10:35:40;100579.44;;;32.76
42673;BMP280;28284;46.514;30.724;2023-06-19T10:38:09;100577.69;;;32.86
42673;BMP280;28284;46.514;30.724;2023-06-19T10:40:42;100577.94;;;32.88
42673;BMP280;28284;46.514;30.724;2023-06-19T10:43:08;100579.69;;;32.91
42673;BMP280;28284;46.514;30.724;2023-06-19T10:45:33;100571.34;;;32.98
42673;BMP280;28284;46.514;30.724;2023-06-19T10:48:00;100575.56;;;33.04
42673;BMP280;28284;46.514;30.724;2023-06-19T10:50:27;100577.06;;;33.05
42673;BMP280;28284;46.514;30.724;2023-06-19T10:52:52;100575.56;;;33.04
42673;BMP280;28284;46.514;30.724;2023-06-19T10:55:19;100567.03;;;33.10
42673;BMP280;28284;46.514;30.724;2023-06-19T10:57:46;100568.44;;;33.03
42673;BMP280;28284;46.514;30.724;2023-06-19T11:00:21;100563.78;;;32.93
42673;BMP280;28284;46.514;30.724;2023-06-19T11:02:47;100559.56;;;32.87
42673;BMP280;28284;46.514;30.724;2023-06-19T11:05:12;100561.59;;;32.86
42673;BMP280;28284;46.514;30.724;2023-06-19T11:07:38;100560.31;;;32.87
42673;BMP280;28284;46.514;30.724;2023-06-19T11:10:04;100557.00;;;32.89
42673;BMP280;28284;46.514;30.724;2023-06-19T11:12:30;100554.81;;;32.82
42673;BMP280;28284;46.514;30.724;2023-06-19T11:14:56;100560.19;;;32.80
42673;BMP280;28284;46.514;30.724;2023-06-19T11:17:21;100553.06;;;32.79
42673;BMP280;28284;46.514;30.724;2023-06-19T11:19:47;100555.78;;;32.71
42673;BMP280;28284;46.514;30.724;2023-06-19T11:22:12;100547.69;;;32.68
42673;BMP280;28284;46.514;30.724;2023-06-19T11:24:45;100552.00;;;32.69
42673;BMP280;28284;46.514;30.724;2023-06-19T11:27:21;100544.22;;;32.62
42673;BMP280;28284;46.514;30.724;2023-06-19T11:29:58;100542.69;;;32.61
42673;BMP280;28284;46.514;30.724;2023-06-19T11:32:24;100536.34;;;32.60
42673;BMP280;28284;46.514;30.724;2023-06-19T11:34:56;100541.63;;;32.64
42673;BMP280;28284;46.514;30.724;2023-06-19T11:37:21;100542.84;;;32.68
42673;BMP280;28284;46.514;30.724;2023-06-19T11:39:47;100547.25;;;32.64
42673;BMP280;28284;46.514;30.724;2023-06-19T11:42:14;100541.22;;;32.60
42673;BMP280;28284;46.514;30.724;2023-06-19T11:45:21;100546.25;;;32.61
42673;BMP280;28284;46.514;30.724;2023-06-19T11:47:32;100546.25;;;32.61
42673;BMP280;28284;46.514;30.724;2023-06-19T11:49:57;100544.22;;;32.62
42673;BMP280;28284;46.514;30.724;2023-06-19T11:52:23;100539.34;;;32.62
42673;BMP280;28284;46.514;30.724;2023-06-19T11:54:48;100543.56;;;32.56
42673;BMP280;28284;46.514;30.724;2023-06-19T11:57:13;100550.84;;;32.46
42673;BMP280;28284;46.514;30.724;2023-06-19T11:59:39;100551.72;;;32.41
42673;BMP280;28284;46.514;30.724;2023-06-19T12:02:05;100543.19;;;32.34
42673;BMP280;28284;46.514;30.724;2023-06-19T12:04:31;100542.28;;;32.26
42673;BMP280;28284;46.514;30.724;2023-06-19T12:06:56;100542.63;;;32.22
42673;BMP280;28284;46.514;30.724;2023-06-19T12:09:21;100535.06;;;32.17
42673;BMP280;28284;46.514;30.724;2023-06-19T12:11:47;100536.50;;;32.05
42673;BMP280;28284;46.514;30.724;2023-06-19T12:14:12;100527.75;;;31.96
42673;BMP280;28284;46.514;30.724;2023-06-19T12:16:38;100530.63;;;31.91
42673;BMP280;28284;46.514;30.724;2023-06-19T12:19:03;100532.16;;;31.92
42673;BMP280;28284;46.514;30.724;2023-06-19T12:21:28;100526.63;;;31.86
42673;BMP280;28284;46.514;30.724;2023-06-19T12:23:54;100522.94;;;31.78
42673;BMP280;28284;46.514;30.724;2023-06-19T12:26:20;100510.59;;;31.68
42673;BMP280;28284;46.514;30.724;2023-06-19T12:28:45;100504.16;;;31.55
42673;BMP280;28284;46.514;30.724;2023-06-19T12:31:11;100501.75;;;31.46
42673;BMP280;28284;46.514;30.724;2023-06-19T12:33:38;100505.72;;;31.32
42673;BMP280;28284;46.514;30.724;2023-06-19T12:36:09;100502.06;;;31.19
42673;BMP280;28284;46.514;30.724;2023-06-19T12:38:34;100499.13;;;31.11
42673;BMP280;28284;46.514;30.724;2023-06-19T12:41:02;100492.31;;;31.07
42673;BMP280;28284;46.514;30.724;2023-06-19T12:43:27;100495.94;;;31.02
42673;BMP280;28284;46.514;30.724;2023-06-19T12:45:53;100495.25;;;30.96
42673;BMP280;28284;46.514;30.724;2023-06-19T12:48:18;100489.44;;;30.94
42673;BMP280;28284;46.514;30.724;2023-06-19T12:50:43;100486.91;;;30.91
42673;BMP280;28284;46.514;30.724;2023-06-19T12:53:09;100489.47;;;30.89
42673;BMP280;28284;46.514;30.724;2023-06-19T12:55:34;100490.25;;;30.89
42673;BMP280;28284;46.514;30.724;2023-06-19T12:57:59;100496.88;;;30.86
42673;BMP280;28284;46.514;30.724;2023-06-19T13:00:24;100503.00;;;30.85
42673;BMP280;28284;46.514;30.724;2023-06-19T13:02:50;100498.22;;;30.80
42673;BMP280;28284;46.514;30.724;2023-06-19T13:05:15;100499.03;;;30.75
42673;BMP280;28284;46.514;30.724;2023-06-19T13:07:40;100502.66;;;30.70
42673;BMP280;28284;46.514;30.724;2023-06-19T13:10:06;100507.69;;;30.71
42673;BMP280;28284;46.514;30.724;2023-06-19T13:12:31;100520.72;;;30.69
42673;BMP280;28284;46.514;30.724;2023-06-19T13:14:57;100513.06;;;30.69
42673;BMP280;28284;46.514;30.724;2023-06-19T13:17:22;100518.66;;;30.69
42673;BMP280;28284;46.514;30.724;2023-06-19T13:19:47;100516.88;;;30.72
42673;BMP280;28284;46.514;30.724;2023-06-19T13:22:13;100517.63;;;30.72
42673;BMP280;28284;46.514;30.724;2023-06-19T13:24:38;100523.25;;;30.67
42673;BMP280;28284;46.514;30.724;2023-06-19T13:27:03;100512.63;;;30.65
42673;BMP280;28284;46.514;30.724;2023-06-19T13:29:29;100507.81;;;30.61
42673;BMP280;28284;46.514;30.724;2023-06-19T13:31:54;100515.97;;;30.59
42673;BMP280;28284;46.514;30.724;2023-06-19T13:34:19;100514.97;;;30.56
42673;BMP280;28284;46.514;30.724;2023-06-19T13:36:46;100511.69;;;30.52
42673;BMP280;28284;46.514;30.724;2023-06-19T13:39:12;100511.22;;;30.54
42673;BMP280;28284;46.514;30.724;2023-06-19T13:41:41;100511.22;;;30.54